KBIX

Keesler AFB Airport

Biloxi, Mississippi, USA
METAR KBIX 092056Z AUTO 33013KT 10SM OVC012 06/04 A3007 RMK AO2 SLP186 T00620035 53005
Observed Flight Rules
Dec-9 @ 20:56 UTC (44 minutes ago) Marginal Visual Flight Rules
Wind Visibility Clouds
330° at 13 knots 10 miles
  • Overcast at 1,200' AGL
Temperatures Readings
Current 6°C / 43°F
Dewpoint 4°C / 39°F
Humidity 87%
Altimeter 30.07" Hg
Pressure 1018.6 hPa
Elevation 10
METAR KBIX 092056Z AUTO 33013KT 10SM OVC012 06/04 A3007 RMK AO2 SLP186 T00620035 53005
Observed Flight Rules
Dec-9 @ 20:56 UTC
(44 minutes ago)
MVFR
Wind Visibility
330° at 13 knots 10 miles
Clouds
  • Overcast at 1,200' AGL
Temperature Dewpoint
6°C / 43°F 4°C / 39°F
Humidity Altimeter Pressure
87% 30.07" Hg 1018.6 hPa